Time,TemperatureF,DewpointF,PressureIn,WindDirection,WindDirectionDegrees,WindSpeedMPH,WindSpeedGustMPH,Humidity,HourlyPrecipIn,Conditions,Clouds,dailyrainin,SoftwareType,DateUTC
2013-05-12 00:02:00,-999.0,-99.9,29.98,WNW,287,0.0,0.0,88,-99.99,,,-99.99,,2013-05-12 04:02:00,
2013-05-12 00:12:00,37.0,34.0,29.98,WNW,287,0.0,0.0,88,-99.99,,,-99.99,,2013-05-12 04:12:00,
2013-05-12 00:22:00,37.0,37.0,29.98,WNW,287,0.0,2.0,99,-99.99,,,-99.99,,2013-05-12 04:22:00,
2013-05-12 00:33:00,36.0,36.0,29.98,WNW,287,0.0,0.0,100,-99.99,,,-99.99,,2013-05-12 04:33:00,
2013-05-12 00:43:00,36.0,36.0,29.99,WNW,287,0.0,0.0,100,-99.99,,,-99.99,,2013-05-12 04:43:00,
2013-05-12 00:52:00,36.0,36.0,29.99,WNW,287,0.0,0.0,100,-99.99,,,-99.99,,2013-05-12 04:52:00,
2013-05-12 01:02:00,35.0,35.0,29.98,WNW,287,0.0,0.0,100,-99.99,,,-99.99,,2013-05-12 05:02:00,
2013-05-12 01:11:00,35.0,35.0,29.98,WNW,287,0.0,0.0,100,-99.99,,,-99.99,,2013-05-12 05:11:00,
2013-05-12 01:22:00,35.0,35.0,29.98,WNW,287,0.0,0.0,100,-99.99,,,-99.99,,2013-05-12 05:22:00,
2013-05-12 01:32:00,35.0,35.0,29.99,WNW,287,0.0,0.0,100,-99.99,,,-99.99,,2013-05-12 05:32:00,
2013-05-12 01:42:00,35.0,35.0,29.99,WNW,287,0.0,0.0,100,-99.99,,,-99.99,,2013-05-12 05:42:00,
2013-05-12 01:51:00,35.0,35.0,29.98,WNW,287,0.0,0.0,100,-99.99,,,-99.99,,2013-05-12 05:51:00,
2013-05-12 02:01:00,35.0,35.0,29.98,WNW,287,0.0,2.0,100,-99.99,,,-99.99,,2013-05-12 06:01:00,
2013-05-12 02:11:00,35.0,35.0,29.98,WNW,287,0.0,2.0,100,-99.99,,,-99.99,,2013-05-12 06:11:00,
2013-05-12 02:21:00,36.0,36.0,29.98,West,281,0.0,3.0,100,-99.99,,,-99.99,,2013-05-12 06:21:00,
2013-05-12 02:32:00,36.0,36.0,29.98,WNW,291,3.0,10.0,100,-99.99,,,-99.99,,2013-05-12 06:32:00,
2013-05-12 02:42:00,37.0,37.0,29.98,WNW,285,2.0,4.0,100,-99.99,,,-99.99,,2013-05-12 06:42:00,
2013-05-12 02:52:00,37.0,37.0,29.98,WNW,285,2.0,4.0,100,-99.99,,,-99.99,,2013-05-12 06:52:00,
2013-05-12 03:01:00,37.0,37.0,29.98,West,281,1.0,5.0,100,-99.99,,,-99.99,,2013-05-12 07:01:00,
2013-05-12 03:11:00,37.0,37.0,29.98,West,281,1.0,5.0,100,-99.99,,,-99.99,,2013-05-12 07:11:00,
2013-05-12 03:21:00,37.0,37.0,29.98,West,281,3.0,5.0,100,-99.99,,,-99.99,,2013-05-12 07:21:00,
2013-05-12 03:32:00,37.0,35.0,29.99,WNW,284,2.0,3.0,92,-99.99,,,-99.99,,2013-05-12 07:32:00,
2013-05-12 03:42:00,37.0,35.0,29.99,WNW,284,2.0,3.0,92,-99.99,,,-99.99,,2013-05-12 07:42:00,
2013-05-12 03:52:00,37.0,35.0,29.99,NW,306,3.0,4.0,91,-99.99,,,-99.99,,2013-05-12 07:52:00,
2013-05-12 04:02:00,38.0,34.0,29.98,NW,312,5.0,8.0,87,-99.99,,,-99.99,,2013-05-12 08:02:00,
2013-05-12 04:11:00,38.0,34.0,29.98,NW,312,5.0,8.0,87,-99.99,,,-99.99,,2013-05-12 08:11:00,
2013-05-12 04:21:00,38.0,34.0,29.98,WNW,301,7.0,7.0,84,-99.99,,,-99.99,,2013-05-12 08:21:00,
2013-05-12 04:32:00,39.0,34.0,29.98,NW,318,6.0,11.0,82,-99.99,,,-99.99,,2013-05-12 08:32:00,
2013-05-12 04:41:00,39.0,34.0,29.98,NW,318,6.0,11.0,82,-99.99,,,-99.99,,2013-05-12 08:41:00,
2013-05-12 04:53:00,39.0,33.0,29.99,NW,315,4.0,6.0,80,-99.99,,,-99.99,,2013-05-12 08:53:00,
2013-05-12 05:01:00,39.0,33.0,29.98,WNW,295,4.0,8.0,78,-99.99,,,-99.99,,2013-05-12 09:01:00,
2013-05-12 05:11:00,39.0,33.0,29.98,WNW,295,4.0,8.0,78,-99.99,,,-99.99,,2013-05-12 09:11:00,
2013-05-12 05:21:00,39.0,33.0,29.99,North,349,4.0,7.0,78,-99.99,,,-99.99,,2013-05-12 09:21:00,
2013-05-12 05:33:00,39.0,32.0,29.98,NNW,336,2.0,6.0,77,-99.99,,,-99.99,,2013-05-12 09:33:00,
2013-05-12 05:42:00,39.0,32.0,29.98,NNW,336,2.0,6.0,77,-99.99,,,-99.99,,2013-05-12 09:42:00,
2013-05-12 05:53:00,39.0,33.0,29.98,WNW,291,3.0,6.0,78,-99.99,,,-99.99,,2013-05-12 09:53:00,
2013-05-12 06:03:00,38.0,32.0,29.99,WNW,292,2.0,5.0,78,-99.99,,,-99.99,,2013-05-12 10:03:00,
2013-05-12 06:12:00,38.0,32.0,29.99,WNW,292,2.0,5.0,78,-99.99,,,-99.99,,2013-05-12 10:12:00,
2013-05-12 06:22:00,38.0,32.0,30.00,WNW,289,3.0,7.0,78,-99.99,,,-99.99,,2013-05-12 10:22:00,
2013-05-12 06:33:00,38.0,33.0,30.00,WNW,292,3.0,6.0,82,-99.99,,,-99.99,,2013-05-12 10:33:00,
2013-05-12 06:42:00,38.0,33.0,30.00,WNW,292,3.0,6.0,82,-99.99,,,-99.99,,2013-05-12 10:42:00,
2013-05-12 06:52:00,38.0,34.0,30.00,NW,304,3.0,6.0,85,-99.99,,,-99.99,,2013-05-12 10:52:00,
2013-05-12 07:02:00,38.0,34.0,30.00,WNW,289,2.0,4.0,85,-99.99,,,-99.99,,2013-05-12 11:02:00,
2013-05-12 07:12:00,38.0,34.0,30.00,WNW,289,2.0,4.0,85,-99.99,,,-99.99,,2013-05-12 11:12:00,
2013-05-12 07:22:00,38.0,34.0,30.00,NW,306,5.0,8.0,84,-99.99,,,-99.99,,2013-05-12 11:22:00,
2013-05-12 07:32:00,38.0,33.0,30.01,West,280,4.0,11.0,83,-99.99,,,-99.99,,2013-05-12 11:32:00,
2013-05-12 07:42:00,39.0,34.0,30.01,West,275,5.0,12.0,83,-99.99,,,-99.99,,2013-05-12 11:42:00,
2013-05-12 07:52:00,39.0,34.0,30.01,West,275,5.0,12.0,83,-99.99,,,-99.99,,2013-05-12 11:52:00,
2013-05-12 08:01:00,40.0,35.0,30.01,NW,316,7.0,12.0,83,-99.99,,,-99.99,,2013-05-12 12:01:00,
2013-05-12 08:11:00,41.0,36.0,30.01,NNW,333,8.0,9.0,83,-99.99,,,-99.99,,2013-05-12 12:11:00,
2013-05-12 08:21:00,41.0,36.0,30.01,NNW,333,8.0,9.0,83,-99.99,,,-99.99,,2013-05-12 12:21:00,
2013-05-12 08:32:00,42.0,33.0,30.01,NNW,336,12.0,19.0,71,-99.99,,,-99.99,,2013-05-12 12:32:00,
2013-05-12 08:41:00,42.0,33.0,30.01,NNW,336,12.0,19.0,71,-99.99,,,-99.99,,2013-05-12 12:41:00,
2013-05-12 08:52:00,42.0,34.0,30.01,NW,309,17.0,19.0,73,-99.99,,,-99.99,,2013-05-12 12:52:00,
2013-05-12 09:01:00,43.0,35.0,30.02,NNW,332,5.0,11.0,73,-99.99,,,-99.99,,2013-05-12 13:01:00,
2013-05-12 09:11:00,43.0,35.0,30.02,NNW,332,5.0,11.0,73,-99.99,,,-99.99,,2013-05-12 13:11:00,
2013-05-12 09:21:00,43.0,35.0,30.02,NNW,332,8.0,17.0,73,-99.99,,,-99.99,,2013-05-12 13:21:00,
2013-05-12 09:32:00,44.0,36.0,30.03,NW,312,10.0,12.0,73,-99.99,,,-99.99,,2013-05-12 13:32:00,
2013-05-12 09:41:00,44.0,36.0,30.03,NW,312,10.0,12.0,73,-99.99,,,-99.99,,2013-05-12 13:41:00,
2013-05-12 09:52:00,44.0,31.0,30.03,NNW,333,13.0,16.0,60,-99.99,,,-99.99,,2013-05-12 13:52:00,
2013-05-12 10:01:00,42.0,29.0,30.04,North,359,8.0,17.0,60,-99.99,,,-99.99,,2013-05-12 14:01:00,
2013-05-12 10:11:00,42.0,29.0,30.04,North,359,8.0,17.0,60,-99.99,,,-99.99,,2013-05-12 14:11:00,
2013-05-12 10:21:00,43.0,33.0,30.05,WNW,301,6.0,10.0,68,-99.99,,,-99.99,,2013-05-12 14:21:00,
2013-05-12 10:31:00,43.0,33.0,30.05,NW,304,7.0,11.0,67,-99.99,,,-99.99,,2013-05-12 14:31:00,
2013-05-12 10:42:00,45.0,35.0,30.05,WNW,299,9.0,13.0,67,-99.99,,,-99.99,,2013-05-12 14:42:00,
2013-05-12 10:52:00,45.0,35.0,30.05,WNW,299,9.0,13.0,67,-99.99,,,-99.99,,2013-05-12 14:52:00,
2013-05-12 11:01:00,45.0,30.0,30.05,North,356,8.0,17.0,56,-99.99,,,-99.99,,2013-05-12 15:01:00,
2013-05-12 11:11:00,45.0,30.0,30.05,North,356,8.0,17.0,56,-99.99,,,-99.99,,2013-05-12 15:11:00,
2013-05-12 11:21:00,46.0,31.0,30.05,WNW,302,5.0,7.0,55,-99.99,,,-99.99,,2013-05-12 15:21:00,
2013-05-12 11:34:00,44.0,28.0,30.07,NW,309,6.0,14.0,52,-99.99,,,-99.99,,2013-05-12 15:34:00,
2013-05-12 11:42:00,44.0,28.0,30.07,NW,309,6.0,14.0,52,-99.99,,,-99.99,,2013-05-12 15:42:00,
2013-05-12 11:53:00,45.0,28.0,30.07,NNW,337,5.0,12.0,52,-99.99,,,-99.99,,2013-05-12 15:53:00,
2013-05-12 12:02:00,45.0,31.0,30.08,NNW,332,15.0,17.0,58,-99.99,,,-99.99,,2013-05-12 16:02:00,
2013-05-12 12:12:00,45.0,31.0,30.08,NNW,332,15.0,17.0,58,-99.99,,,-99.99,,2013-05-12 16:12:00,
2013-05-12 12:23:00,45.0,30.0,30.08,NW,319,13.0,19.0,55,-99.99,,,-99.99,,2013-05-12 16:23:00,
2013-05-12 12:32:00,44.0,31.0,30.09,NW,312,10.0,18.0,61,-99.99,,,-99.99,,2013-05-12 16:32:00,
2013-05-12 12:42:00,44.0,31.0,30.09,NW,312,10.0,18.0,61,-99.99,,,-99.99,,2013-05-12 16:42:00,
2013-05-12 12:52:00,44.0,32.0,30.09,WNW,291,6.0,17.0,63,-99.99,,,-99.99,,2013-05-12 16:52:00,
2013-05-12 13:02:00,45.0,33.0,30.09,North,357,6.0,12.0,63,-99.99,,,-99.99,,2013-05-12 17:02:00,
2013-05-12 13:12:00,44.0,33.0,30.10,NW,304,9.0,14.0,64,-99.99,,,-99.99,,2013-05-12 17:12:00,
2013-05-12 13:22:00,44.0,33.0,30.10,NW,304,9.0,14.0,64,-99.99,,,-99.99,,2013-05-12 17:22:00,
2013-05-12 13:32:00,44.0,33.0,30.10,WNW,289,8.0,8.0,65,-99.99,,,-99.99,,2013-05-12 17:32:00,
2013-05-12 13:42:00,46.0,34.0,30.10,WNW,298,8.0,14.0,62,-99.99,,,-99.99,,2013-05-12 17:42:00,
2013-05-12 13:52:00,46.0,34.0,30.10,WNW,298,8.0,14.0,62,-99.99,,,-99.99,,2013-05-12 17:52:00,
2013-05-12 14:01:00,45.0,33.0,30.10,North,356,3.0,9.0,62,-99.99,,,-99.99,,2013-05-12 18:01:00,
2013-05-12 14:12:00,45.0,33.0,30.10,North,356,3.0,9.0,62,-99.99,,,-99.99,,2013-05-12 18:12:00,
2013-05-12 14:22:00,46.0,34.0,30.10,NW,325,5.0,7.0,62,-99.99,,,-99.99,,2013-05-12 18:22:00,
2013-05-12 14:32:00,46.0,34.0,30.10,West,270,6.0,13.0,62,-99.99,,,-99.99,,2013-05-12 18:32:00,
2013-05-12 14:42:00,46.0,34.0,30.10,West,270,6.0,13.0,62,-99.99,,,-99.99,,2013-05-12 18:42:00,
2013-05-12 14:52:00,46.0,32.0,30.10,WNW,284,9.0,13.0,59,-99.99,,,-99.99,,2013-05-12 18:52:00,
2013-05-12 15:01:00,47.0,34.0,30.11,West,281,12.0,16.0,60,-99.99,,,-99.99,,2013-05-12 19:01:00,
2013-05-12 15:11:00,47.0,34.0,30.11,West,281,12.0,16.0,60,-99.99,,,-99.99,,2013-05-12 19:11:00,
2013-05-12 15:21:00,47.0,32.0,30.10,WNW,299,11.0,16.0,56,-99.99,,,-99.99,,2013-05-12 19:21:00,
2013-05-12 15:32:00,48.0,32.0,30.10,NW,308,12.0,17.0,54,-99.99,,,-99.99,,2013-05-12 19:32:00,
2013-05-12 15:42:00,47.0,32.0,30.10,WNW,288,4.0,14.0,56,-99.99,,,-99.99,,2013-05-12 19:42:00,
2013-05-12 15:52:00,47.0,32.0,30.10,WNW,288,4.0,14.0,56,-99.99,,,-99.99,,2013-05-12 19:52:00,
2013-05-12 16:02:00,48.0,32.0,30.10,WNW,285,11.0,11.0,54,-99.99,,,-99.99,,2013-05-12 20:02:00,
2013-05-12 16:11:00,48.0,32.0,30.09,NW,304,6.0,10.0,54,-99.99,,,-99.99,,2013-05-12 20:11:00,
2013-05-12 16:21:00,48.0,32.0,30.09,NW,304,6.0,10.0,54,-99.99,,,-99.99,,2013-05-12 20:21:00,
2013-05-12 16:32:00,49.0,32.0,30.09,West,278,5.0,6.0,52,-99.99,,,-99.99,,2013-05-12 20:32:00,
2013-05-12 16:42:00,49.0,32.0,30.09,West,278,5.0,6.0,52,-99.99,,,-99.99,,2013-05-12 20:42:00,
2013-05-12 16:52:00,50.0,32.0,30.08,NNW,343,1.0,13.0,49,-99.99,,,-99.99,,2013-05-12 20:52:00,
2013-05-12 17:01:00,51.0,33.0,30.08,WSW,258,4.0,10.0,49,-99.99,,,-99.99,,2013-05-12 21:01:00,
2013-05-12 17:11:00,50.0,31.0,30.08,NW,320,10.0,10.0,47,-99.99,,,-99.99,,2013-05-12 21:11:00,
2013-05-12 17:21:00,50.0,31.0,30.08,NW,320,10.0,10.0,47,-99.99,,,-99.99,,2013-05-12 21:21:00,
2013-05-12 17:33:00,50.0,30.0,30.08,NW,316,18.0,20.0,46,-99.99,,,-99.99,,2013-05-12 21:33:00,
2013-05-12 17:42:00,50.0,30.0,30.08,NW,316,18.0,20.0,46,-99.99,,,-99.99,,2013-05-12 21:42:00,
2013-05-12 17:53:00,50.0,30.0,30.08,NW,320,10.0,11.0,46,-99.99,,,-99.99,,2013-05-12 21:53:00,
2013-05-12 18:02:00,51.0,31.0,30.07,NNW,336,7.0,12.0,46,-99.99,,,-99.99,,2013-05-12 22:02:00,
2013-05-12 18:12:00,52.0,30.0,30.08,NW,315,15.0,15.0,42,-99.99,,,-99.99,,2013-05-12 22:12:00,
2013-05-12 18:23:00,52.0,30.0,30.08,NW,315,15.0,15.0,42,-99.99,,,-99.99,,2013-05-12 22:23:00,
2013-05-12 18:32:00,51.0,29.0,30.08,WSW,258,8.0,11.0,42,-99.99,,,-99.99,,2013-05-12 22:32:00,
2013-05-12 18:42:00,51.0,29.0,30.08,WSW,258,8.0,11.0,42,-99.99,,,-99.99,,2013-05-12 22:42:00,
2013-05-12 18:52:00,51.0,29.0,30.08,North,350,10.0,14.0,42,-99.99,,,-99.99,,2013-05-12 22:52:00,
2013-05-12 19:02:00,50.0,28.0,30.08,NW,309,8.0,12.0,42,-99.99,,,-99.99,,2013-05-12 23:02:00,
2013-05-12 19:12:00,50.0,30.0,30.08,WNW,291,9.0,13.0,46,-99.99,,,-99.99,,2013-05-12 23:12:00,
2013-05-12 19:22:00,50.0,30.0,30.08,WNW,291,9.0,13.0,46,-99.99,,,-99.99,,2013-05-12 23:22:00,
2013-05-12 19:32:00,50.0,29.0,30.08,NW,311,12.0,12.0,44,-99.99,,,-99.99,,2013-05-12 23:32:00,
2013-05-12 19:42:00,50.0,29.0,30.08,NW,311,12.0,12.0,44,-99.99,,,-99.99,,2013-05-12 23:42:00,
2013-05-12 19:52:00,49.0,30.0,30.08,WNW,301,3.0,10.0,47,-99.99,,,-99.99,,2013-05-12 23:52:00,
2013-05-12 20:01:00,48.0,29.0,30.07,West,278,5.0,14.0,47,-99.99,,,-99.99,,2013-05-13 00:01:00,
2013-05-12 20:11:00,48.0,29.0,30.07,West,278,5.0,14.0,47,-99.99,,,-99.99,,2013-05-13 00:11:00,
2013-05-12 20:21:00,48.0,30.0,30.07,NW,305,2.0,10.0,49,-99.99,,,-99.99,,2013-05-13 00:21:00,
2013-05-12 20:32:00,47.0,29.0,30.08,NW,312,2.0,7.0,50,-99.99,,,-99.99,,2013-05-13 00:32:00,
2013-05-12 20:42:00,46.0,28.0,30.08,WNW,302,0.0,3.0,50,-99.99,,,-99.99,,2013-05-13 00:42:00,
2013-05-12 20:52:00,46.0,28.0,30.08,WNW,302,0.0,3.0,50,-99.99,,,-99.99,,2013-05-13 00:52:00,
2013-05-12 21:01:00,45.0,27.0,30.08,North,360,0.0,2.0,50,-99.99,,,-99.99,,2013-05-13 01:01:00,
2013-05-12 21:11:00,45.0,27.0,30.08,North,360,0.0,2.0,50,-99.99,,,-99.99,,2013-05-13 01:11:00,
2013-05-12 21:22:00,44.0,27.0,30.09,WNW,299,0.0,2.0,50,-99.99,,,-99.99,,2013-05-13 01:22:00,
2013-05-12 21:31:00,43.0,26.0,30.09,WNW,299,0.0,0.0,50,-99.99,,,-99.99,,2013-05-13 01:31:00,
2013-05-12 21:41:00,43.0,26.0,30.09,WNW,299,0.0,0.0,50,-99.99,,,-99.99,,2013-05-13 01:41:00,
2013-05-12 21:52:00,42.0,31.0,30.10,WNW,299,0.0,0.0,65,-99.99,,,-99.99,,2013-05-13 01:52:00,
2013-05-12 22:01:00,40.0,30.0,30.10,WNW,299,0.0,0.0,67,-99.99,,,-99.99,,2013-05-13 02:01:00,
2013-05-12 22:11:00,40.0,30.0,30.10,WNW,299,0.0,0.0,67,-99.99,,,-99.99,,2013-05-13 02:11:00,
2013-05-12 22:21:00,39.0,29.0,30.11,WNW,299,0.0,0.0,67,-99.99,,,-99.99,,2013-05-13 02:21:00,
2013-05-12 22:31:00,37.0,32.0,30.11,WNW,299,0.0,0.0,81,-99.99,,,-99.99,,2013-05-13 02:31:00,
2013-05-12 22:41:00,37.0,32.0,30.11,WNW,299,0.0,0.0,81,-99.99,,,-99.99,,2013-05-13 02:41:00,
2013-05-12 22:52:00,36.0,32.0,30.11,WNW,299,0.0,0.0,86,-99.99,,,-99.99,,2013-05-13 02:52:00,
2013-05-12 23:01:00,35.0,32.0,30.12,WNW,299,0.0,0.0,87,-99.99,,,-99.99,,2013-05-13 03:01:00,
2013-05-12 23:11:00,35.0,32.0,30.12,WNW,299,0.0,0.0,87,-99.99,,,-99.99,,2013-05-13 03:11:00,
2013-05-12 23:21:00,34.0,31.0,30.12,WNW,299,0.0,0.0,87,-99.99,,,-99.99,,2013-05-13 03:21:00,
2013-05-12 23:32:00,34.0,31.0,30.12,WNW,299,0.0,0.0,87,-99.99,,,-99.99,,2013-05-13 03:32:00,
2013-05-12 23:42:00,34.0,31.0,30.12,WNW,299,0.0,0.0,87,-99.99,,,-99.99,,2013-05-13 03:42:00,
2013-05-12 23:53:00,33.0,32.0,30.11,WNW,299,0.0,0.0,95,-99.99,,,-99.99,,2013-05-13 03:53:00,